Time;durP1;ratioP1;P1;durP2;ratioP2;P2;SDS_P1;SDS_P2;PMS_P1;PMS_P2;Temp;Humidity;BMP_temperature;BMP_pressure;BME280_temperature;BME280_humidity;BME280_pressure;Samples;Min_cycle;Max_cycle;Signal;HPM_P1;HPM_P2
2024/01/10 00:02:26;;;;;;;25.42;10.32;;;;;;;;;;5007681;28;20046;-57
2024/01/10 00:04:52;;;;;;;27.02;10.30;;;;;;;;;;4997232;28;20061;-55
2024/01/10 00:07:18;;;;;;;30.50;11.27;;;;;;;;;;4995886;28;20406;-56
2024/01/10 00:09:45;;;;;;;30.83;12.30;;;;;;;;;;5004944;28;20041;-56
2024/01/10 00:12:11;;;;;;;34.30;11.80;;;;;;;;;;5003232;28;20486;-55
2024/01/10 00:14:38;;;;;;;28.35;12.20;;;;;;;;;;4998686;28;20072;-59
2024/01/10 00:17:04;;;;;;;24.90;10.60;;;;;;;;;;5000376;28;20061;-57
2024/01/10 00:19:30;;;;;;;32.50;12.07;;;;;;;;;;4998393;28;20444;-56
2024/01/10 00:21:56;;;;;;;29.52;11.13;;;;;;;;;;4998330;28;20038;-56
2024/01/10 00:24:22;;;;;;;30.02;11.70;;;;;;;;;;4998684;28;20414;-58
2024/01/10 00:26:48;;;;;;;30.98;10.55;;;;;;;;;;4998399;28;20057;-57
2024/01/10 00:29:14;;;;;;;29.40;11.40;;;;;;;;;;4999472;28;20049;-56
2024/01/10 00:31:41;;;;;;;26.70;10.77;;;;;;;;;;5000059;28;20405;-55
2024/01/10 00:34:07;;;;;;;26.70;11.90;;;;;;;;;;4999838;28;20041;-58
2024/01/10 00:36:33;;;;;;;28.77;10.65;;;;;;;;;;5004813;28;20485;-55
2024/01/10 00:38:59;;;;;;;29.13;11.85;;;;;;;;;;4996958;28;20050;-57
2024/01/10 00:41:25;;;;;;;25.70;11.23;;;;;;;;;;4997910;28;20026;-53
2024/01/10 00:43:51;;;;;;;30.23;11.18;;;;;;;;;;5007305;28;20044;-56
2024/01/10 00:46:17;;;;;;;27.60;12.13;;;;;;;;;;4999630;28;20066;-56
2024/01/10 00:48:43;;;;;;;31.70;11.52;;;;;;;;;;5000269;28;20037;-57
2024/01/10 00:51:10;;;;;;;29.25;11.52;;;;;;;;;;5001427;28;20046;-59
2024/01/10 00:53:38;;;;;;;32.53;12.32;;;;;;;;;;5001141;28;20497;-58
2024/01/10 00:56:05;;;;;;;30.00;11.93;;;;;;;;;;4998944;28;20038;-56
2024/01/10 00:58:31;;;;;;;30.25;12.30;;;;;;;;;;5000896;28;20537;-53
2024/01/10 01:00:57;;;;;;;26.65;11.52;;;;;;;;;;4998537;28;20068;-55
2024/01/10 01:03:23;;;;;;;30.80;11.38;;;;;;;;;;4997284;28;20042;-57
2024/01/10 01:05:49;;;;;;;27.63;11.10;;;;;;;;;;4993262;28;20517;-52
2024/01/10 01:08:15;;;;;;;31.13;12.65;;;;;;;;;;4994544;28;20046;-54
2024/01/10 01:10:42;;;;;;;32.00;12.50;;;;;;;;;;4999165;28;20409;-54
2024/01/10 01:13:08;;;;;;;37.95;14.95;;;;;;;;;;4999361;28;20382;-57
2024/01/10 01:15:34;;;;;;;38.75;15.63;;;;;;;;;;5001871;28;20042;-55
2024/01/10 01:18:00;;;;;;;44.70;16.52;;;;;;;;;;4995697;28;20050;-54
2024/01/10 01:20:26;;;;;;;42.78;17.05;;;;;;;;;;4999611;28;20065;-54
2024/01/10 01:22:52;;;;;;;33.22;13.27;;;;;;;;;;4998540;28;20049;-54
2024/01/10 01:25:19;;;;;;;39.42;15.65;;;;;;;;;;5001036;28;20054;-55
2024/01/10 01:27:45;;;;;;;36.42;15.05;;;;;;;;;;4999871;28;20042;-56
2024/01/10 01:30:11;;;;;;;34.58;14.93;;;;;;;;;;5005380;28;20036;-56
2024/01/10 01:32:37;;;;;;;36.63;13.32;;;;;;;;;;4996793;28;20041;-55
2024/01/10 01:35:04;;;;;;;32.20;13.52;;;;;;;;;;4996681;28;20046;-56
2024/01/10 01:37:30;;;;;;;33.45;13.20;;;;;;;;;;4998329;28;20051;-54
2024/01/10 01:39:56;;;;;;;34.75;14.35;;;;;;;;;;4999142;28;20498;-56
2024/01/10 01:42:22;;;;;;;34.08;14.68;;;;;;;;;;4996790;28;20054;-55
2024/01/10 01:44:48;;;;;;;40.85;15.18;;;;;;;;;;4998822;28;20130;-55
2024/01/10 01:47:15;;;;;;;39.03;15.30;;;;;;;;;;5000584;28;20406;-56
2024/01/10 01:49:42;;;;;;;31.65;14.32;;;;;;;;;;5001660;28;20046;-56
2024/01/10 01:52:10;;;;;;;40.85;16.17;;;;;;;;;;5000815;28;20038;-57
2024/01/10 01:54:36;;;;;;;35.33;15.20;;;;;;;;;;5002037;28;20402;-54
2024/01/10 01:57:03;;;;;;;28.23;12.32;;;;;;;;;;5003447;28;20034;-55
2024/01/10 01:59:29;;;;;;;30.05;12.82;;;;;;;;;;5005181;28;20043;-56
2024/01/10 02:01:56;;;;;;;37.53;13.82;;;;;;;;;;5000023;28;20041;-54
2024/01/10 02:04:23;;;;;;;33.72;12.88;;;;;;;;;;5003642;28;20045;-57
2024/01/10 02:06:49;;;;;;;34.50;14.95;;;;;;;;;;4999813;28;20038;-56
2024/01/10 02:09:15;;;;;;;33.63;14.25;;;;;;;;;;4992607;28;20072;-55
2024/01/10 02:11:42;;;;;;;35.42;13.25;;;;;;;;;;4995812;28;20656;-56
2024/01/10 02:14:08;;;;;;;36.60;14.13;;;;;;;;;;5009240;28;20057;-58
2024/01/10 02:16:34;;;;;;;30.17;12.85;;;;;;;;;;5002258;28;20030;-57
2024/01/10 02:19:01;;;;;;;29.38;12.45;;;;;;;;;;4999835;28;20058;-56
2024/01/10 02:21:27;;;;;;;35.42;12.77;;;;;;;;;;5005145;28;20046;-56
2024/01/10 02:23:53;;;;;;;33.55;13.48;;;;;;;;;;5003825;28;20509;-57
2024/01/10 02:26:19;;;;;;;31.65;13.80;;;;;;;;;;4997562;28;20042;-53
2024/01/10 02:28:45;;;;;;;29.42;12.07;;;;;;;;;;4999164;28;20030;-56
2024/01/10 02:31:11;;;;;;;34.80;13.15;;;;;;;;;;5002197;28;20425;-54
2024/01/10 02:33:38;;;;;;;38.20;13.93;;;;;;;;;;5005810;28;20041;-52
2024/01/10 02:36:04;;;;;;;31.38;14.25;;;;;;;;;;5003701;28;20050;-56
2024/01/10 02:38:30;;;;;;;39.72;14.88;;;;;;;;;;5007452;28;20053;-53
2024/01/10 02:40:56;;;;;;;34.38;14.90;;;;;;;;;;5002168;28;20050;-54
2024/01/10 02:43:22;;;;;;;33.95;16.00;;;;;;;;;;5005218;28;20049;-52
2024/01/10 02:45:48;;;;;;;32.50;14.23;;;;;;;;;;5001660;28;20061;-56
2024/01/10 02:48:15;;;;;;;35.35;14.93;;;;;;;;;;5004641;28;20050;-54
2024/01/10 02:50:41;;;;;;;30.27;13.77;;;;;;;;;;5002276;28;20026;-53
2024/01/10 02:53:07;;;;;;;36.78;14.55;;;;;;;;;;5004433;28;20057;-55
2024/01/10 02:55:33;;;;;;;44.28;15.85;;;;;;;;;;5006118;28;20049;-55
2024/01/10 02:57:59;;;;;;;34.75;14.52;;;;;;;;;;5001478;28;20050;-53
2024/01/10 03:00:25;;;;;;;35.17;14.02;;;;;;;;;;5000592;28;20067;-54
2024/01/10 03:02:51;;;;;;;32.65;14.77;;;;;;;;;;5001559;28;20050;-52
2024/01/10 03:05:17;;;;;;;35.90;14.80;;;;;;;;;;4999178;28;20505;-54
2024/01/10 03:07:43;;;;;;;40.70;16.27;;;;;;;;;;5001336;28;20053;-53
2024/01/10 03:10:09;;;;;;;30.45;14.40;;;;;;;;;;4999009;28;20038;-56
2024/01/10 03:12:37;;;;;;;36.95;15.90;;;;;;;;;;5009388;28;20068;-53
2024/01/10 03:15:06;;;;;;;32.53;14.43;;;;;;;;;;5005953;28;20425;-55
2024/01/10 03:17:33;;;;;;;39.97;13.82;;;;;;;;;;5004280;28;20046;-55
2024/01/10 03:19:59;;;;;;;35.25;14.05;;;;;;;;;;5003027;28;20438;-53
2024/01/10 03:22:25;;;;;;;36.90;15.35;;;;;;;;;;5004421;28;20070;-58
2024/01/10 03:24:51;;;;;;;37.28;14.93;;;;;;;;;;5004640;28;20045;-58
2024/01/10 03:27:17;;;;;;;39.97;16.73;;;;;;;;;;5001461;28;20058;-59
2024/01/10 03:29:44;;;;;;;36.33;16.38;;;;;;;;;;5003555;28;20030;-58
2024/01/10 03:32:10;;;;;;;39.00;14.98;;;;;;;;;;4998359;28;20050;-59
2024/01/10 03:34:36;;;;;;;34.95;14.80;;;;;;;;;;4998088;28;20049;-58
2024/01/10 03:37:03;;;;;;;41.40;16.45;;;;;;;;;;4998943;28;20050;-57
2024/01/10 03:39:29;;;;;;;38.88;15.77;;;;;;;;;;5005913;28;20053;-53
2024/01/10 03:41:55;;;;;;;35.95;14.80;;;;;;;;;;4998963;28;20046;-59
2024/01/10 03:44:21;;;;;;;39.58;16.50;;;;;;;;;;5003654;28;20413;-57
2024/01/10 03:46:47;;;;;;;36.22;14.43;;;;;;;;;;5003428;28;20046;-56
2024/01/10 03:49:13;;;;;;;41.22;15.63;;;;;;;;;;5000240;28;20045;-57
2024/01/10 03:51:40;;;;;;;36.92;16.42;;;;;;;;;;5004842;28;20033;-56
2024/01/10 03:54:06;;;;;;;36.72;16.15;;;;;;;;;;5003539;28;20045;-58
2024/01/10 03:56:32;;;;;;;32.80;14.23;;;;;;;;;;5004433;28;20125;-57
2024/01/10 03:58:59;;;;;;;42.65;15.88;;;;;;;;;;5003383;28;20453;-59
2024/01/10 04:01:28;;;;;;;38.85;16.00;;;;;;;;;;4998744;28;20508;-55
2024/01/10 04:03:54;;;;;;;37.08;15.65;;;;;;;;;;4995251;28;20072;-59
2024/01/10 04:06:20;;;;;;;36.55;16.30;;;;;;;;;;5007496;28;20041;-59
2024/01/10 04:08:46;;;;;;;33.33;14.75;;;;;;;;;;5007673;28;20045;-60
2024/01/10 04:11:12;;;;;;;37.63;15.75;;;;;;;;;;5002420;28;20386;-59
2024/01/10 04:13:38;;;;;;;41.58;15.82;;;;;;;;;;5001230;28;20053;-57
2024/01/10 04:16:04;;;;;;;34.17;15.18;;;;;;;;;;5010103;28;20054;-54
2024/01/10 04:18:30;;;;;;;38.65;16.02;;;;;;;;;;5003453;28;20041;-59
2024/01/10 04:20:56;;;;;;;40.15;16.58;;;;;;;;;;5003503;28;20034;-59
2024/01/10 04:23:23;;;;;;;38.25;16.60;;;;;;;;;;5007465;28;20034;-60
2024/01/10 04:25:49;;;;;;;37.28;15.77;;;;;;;;;;5005545;28;20110;-58
2024/01/10 04:28:15;;;;;;;39.97;17.20;;;;;;;;;;5018343;28;20052;-57
2024/01/10 04:30:41;;;;;;;38.42;15.38;;;;;;;;;;5006234;28;20037;-58
2024/01/10 04:33:07;;;;;;;38.10;17.45;;;;;;;;;;4996190;28;20050;-54
2024/01/10 04:35:33;;;;;;;41.88;16.75;;;;;;;;;;4994586;28;20042;-59
2024/01/10 04:37:59;;;;;;;39.35;15.98;;;;;;;;;;5010939;28;20061;-59
2024/01/10 04:40:25;;;;;;;43.03;17.33;;;;;;;;;;4999466;28;20038;-59
2024/01/10 04:42:51;;;;;;;44.67;17.77;;;;;;;;;;5002575;28;20053;-56
2024/01/10 04:45:17;;;;;;;43.83;17.98;;;;;;;;;;5003446;28;20054;-55
2024/01/10 04:47:44;;;;;;;39.50;15.90;;;;;;;;;;4994423;28;20045;-55
2024/01/10 04:50:11;;;;;;;37.70;16.00;;;;;;;;;;5002338;28;20469;-55
2024/01/10 04:52:37;;;;;;;37.65;16.40;;;;;;;;;;5000226;28;20413;-56
2024/01/10 04:55:05;;;;;;;36.85;17.52;;;;;;;;;;5001929;28;20045;-58
2024/01/10 04:57:31;;;;;;;42.90;16.73;;;;;;;;;;4999427;28;20049;-56
2024/01/10 04:59:58;;;;;;;40.47;17.02;;;;;;;;;;4999174;28;20033;-55
2024/01/10 05:02:24;;;;;;;43.20;17.05;;;;;;;;;;5000103;28;20050;-57
2024/01/10 05:04:50;;;;;;;41.10;17.85;;;;;;;;;;4998753;28;20038;-54
2024/01/10 05:07:16;;;;;;;42.22;16.33;;;;;;;;;;4998327;28;20042;-56
2024/01/10 05:09:42;;;;;;;38.90;15.60;;;;;;;;;;4996972;28;20042;-56
2024/01/10 05:12:09;;;;;;;37.00;16.42;;;;;;;;;;5003077;28;20043;-56
2024/01/10 05:14:35;;;;;;;39.45;15.43;;;;;;;;;;4995784;28;20049;-58
2024/01/10 05:17:01;;;;;;;38.22;16.08;;;;;;;;;;5001413;28;20046;-55
2024/01/10 05:19:27;;;;;;;39.67;15.77;;;;;;;;;;4998549;28;20045;-55
2024/01/10 05:21:54;;;;;;;44.65;17.15;;;;;;;;;;5003525;28;20061;-59
2024/01/10 05:24:20;;;;;;;39.08;16.85;;;;;;;;;;4998804;28;20049;-56
2024/01/10 05:26:46;;;;;;;39.15;17.73;;;;;;;;;;5004466;28;20046;-59
2024/01/10 05:29:12;;;;;;;45.25;17.90;;;;;;;;;;4997054;28;20034;-57
2024/01/10 05:31:39;;;;;;;38.67;16.63;;;;;;;;;;5005847;28;20033;-56
2024/01/10 05:34:05;;;;;;;41.33;18.20;;;;;;;;;;4999336;28;20049;-56
2024/01/10 05:36:33;;;;;;;43.25;17.05;;;;;;;;;;4996527;28;20041;-56
2024/01/10 05:38:59;;;;;;;38.50;17.23;;;;;;;;;;4993178;28;20042;-57
2024/01/10 05:41:25;;;;;;;37.83;15.95;;;;;;;;;;4999184;28;20053;-55
2024/01/10 05:43:51;;;;;;;37.13;16.85;;;;;;;;;;4997809;28;20038;-57
2024/01/10 05:46:19;;;;;;;34.92;16.85;;;;;;;;;;4997784;28;20038;-57
2024/01/10 05:48:46;;;;;;;42.38;17.60;;;;;;;;;;4999588;28;20049;-57
2024/01/10 05:51:13;;;;;;;45.47;16.77;;;;;;;;;;5000386;28;20046;-53
2024/01/10 05:53:39;;;;;;;34.50;15.30;;;;;;;;;;5008488;28;20038;-57
2024/01/10 05:56:06;;;;;;;43.72;17.95;;;;;;;;;;5004586;28;20054;-59
2024/01/10 05:58:32;;;;;;;47.65;18.80;;;;;;;;;;5004792;28;20034;-57
2024/01/10 06:00:58;;;;;;;43.95;18.30;;;;;;;;;;5002346;28;20042;-56
2024/01/10 06:03:24;;;;;;;48.75;19.33;;;;;;;;;;5011743;28;20033;-57
2024/01/10 06:05:50;;;;;;;48.17;20.23;;;;;;;;;;5014430;28;20225;-58
2024/01/10 06:08:16;;;;;;;45.40;19.35;;;;;;;;;;5005952;28;20053;-60
2024/01/10 06:10:42;;;;;;;51.60;22.00;;;;;;;;;;4999505;28;20039;-60
2024/01/10 06:13:08;;;;;;;50.60;21.40;;;;;;;;;;4998509;28;20057;-60
2024/01/10 06:15:35;;;;;;;51.25;21.08;;;;;;;;;;5005283;28;20053;-59
2024/01/10 06:18:01;;;;;;;55.25;21.10;;;;;;;;;;4999758;28;20038;-59
2024/01/10 06:20:27;;;;;;;41.72;18.42;;;;;;;;;;5006520;28;20155;-60
2024/01/10 06:22:53;;;;;;;47.38;18.83;;;;;;;;;;5002699;28;20436;-59
2024/01/10 06:25:19;;;;;;;43.38;17.65;;;;;;;;;;5001563;28;20034;-60
2024/01/10 06:27:45;;;;;;;38.67;17.70;;;;;;;;;;4998354;28;20532;-58
2024/01/10 06:30:12;;;;;;;42.63;18.58;;;;;;;;;;5005422;28;20398;-59
2024/01/10 06:32:38;;;;;;;43.85;17.90;;;;;;;;;;5004419;28;20038;-60
2024/01/10 06:35:04;;;;;;;45.95;19.58;;;;;;;;;;5000591;28;20061;-59
2024/01/10 06:37:31;;;;;;;44.13;19.65;;;;;;;;;;5002637;28;20061;-57
2024/01/10 06:39:57;;;;;;;43.38;18.83;;;;;;;;;;5004934;28;20046;-57
2024/01/10 06:42:23;;;;;;;44.95;19.52;;;;;;;;;;5007648;28;20050;-59
2024/01/10 06:44:49;;;;;;;43.25;20.20;;;;;;;;;;5006267;28;20049;-60
2024/01/10 06:47:15;;;;;;;48.50;19.17;;;;;;;;;;5003421;28;20434;-56
2024/01/10 06:49:41;;;;;;;41.67;18.23;;;;;;;;;;5005766;28;20053;-59
2024/01/10 06:52:07;;;;;;;47.17;17.75;;;;;;;;;;5002589;28;20054;-57
2024/01/10 06:54:35;;;;;;;43.30;17.13;;;;;;;;;;5004877;28;20046;-60
2024/01/10 06:57:01;;;;;;;41.97;17.65;;;;;;;;;;4998926;28;20065;-60
2024/01/10 06:59:27;;;;;;;47.17;17.15;;;;;;;;;;5004530;28;20050;-59
2024/01/10 07:01:53;;;;;;;39.38;17.55;;;;;;;;;;5002292;28;20035;-59
2024/01/10 07:04:22;;;;;;;41.65;18.75;;;;;;;;;;5001369;28;20034;-58
2024/01/10 07:06:48;;;;;;;42.72;18.27;;;;;;;;;;5005186;28;20072;-59
2024/01/10 07:09:19;;;;;;;50.33;20.40;;;;;;;;;;5006629;28;20417;-60
2024/01/10 07:11:48;;;;;;;44.72;19.30;;;;;;;;;;5002390;28;20482;-59
2024/01/10 07:14:15;;;;;;;48.65;19.80;;;;;;;;;;4997392;28;20069;-58
2024/01/10 07:16:45;;;;;;;48.22;20.70;;;;;;;;;;4996012;28;20050;-60
2024/01/10 07:19:15;;;;;;;46.20;20.75;;;;;;;;;;4997749;28;20046;-59
2024/01/10 07:21:42;;;;;;;43.85;17.65;;;;;;;;;;5004010;28;20042;-58
2024/01/10 07:24:09;;;;;;;36.65;15.93;;;;;;;;;;5007207;28;20057;-60
2024/01/10 07:26:38;;;;;;;42.33;17.52;;;;;;;;;;5002822;28;20046;-59
2024/01/10 07:29:08;;;;;;;40.08;17.25;;;;;;;;;;5007665;28;20046;-59
2024/01/10 07:31:35;;;;;;;39.45;16.60;;;;;;;;;;5003598;28;20029;-57
2024/01/10 07:34:01;;;;;;;41.17;17.65;;;;;;;;;;4999900;28;20054;-56
2024/01/10 07:36:29;;;;;;;40.78;17.38;;;;;;;;;;5000165;28;20051;-57
2024/01/10 07:38:57;;;;;;;41.85;18.27;;;;;;;;;;4994143;28;20042;-57
2024/01/10 07:41:23;;;;;;;42.30;17.92;;;;;;;;;;5002166;28;20033;-56
2024/01/10 07:43:49;;;;;;;42.80;18.30;;;;;;;;;;5006136;28;20560;-57
2024/01/10 07:46:15;;;;;;;46.58;18.45;;;;;;;;;;5004116;28;20590;-58
2024/01/10 07:48:42;;;;;;;46.42;19.67;;;;;;;;;;5003312;28;20030;-57
2024/01/10 07:51:08;;;;;;;50.17;20.27;;;;;;;;;;5000108;28;20033;-58
2024/01/10 07:53:34;;;;;;;53.55;22.23;;;;;;;;;;5002588;28;20033;-58
2024/01/10 07:56:00;;;;;;;49.17;21.35;;;;;;;;;;4999782;28;20039;-57
2024/01/10 07:58:26;;;;;;;52.67;21.90;;;;;;;;;;5001433;28;20413;-58
2024/01/10 08:00:52;;;;;;;46.95;21.75;;;;;;;;;;4998627;28;20057;-58
2024/01/10 08:03:18;;;;;;;57.63;23.60;;;;;;;;;;5000719;28;20045;-59
2024/01/10 08:05:44;;;;;;;53.45;23.70;;;;;;;;;;4999883;28;20038;-60
2024/01/10 08:08:13;;;;;;;58.38;24.48;;;;;;;;;;5003866;28;20046;-55
2024/01/10 08:10:39;;;;;;;57.05;21.65;;;;;;;;;;4998558;28;20047;-57
2024/01/10 08:13:06;;;;;;;52.45;21.75;;;;;;;;;;5004699;28;20054;-57
2024/01/10 08:15:34;;;;;;;50.35;21.23;;;;;;;;;;5002581;28;20050;-58
2024/01/10 08:18:02;;;;;;;45.90;19.88;;;;;;;;;;4998410;28;20050;-58
2024/01/10 08:20:28;;;;;;;54.55;22.95;;;;;;;;;;5003590;28;20073;-58
2024/01/10 08:22:55;;;;;;;56.72;20.30;;;;;;;;;;5000015;28;20060;-58
2024/01/10 08:25:22;;;;;;;49.10;21.75;;;;;;;;;;5001547;28;20038;-57
2024/01/10 08:27:48;;;;;;;53.90;21.80;;;;;;;;;;4997823;28;20413;-57
2024/01/10 08:30:15;;;;;;;55.38;21.85;;;;;;;;;;4996043;28;20052;-57
2024/01/10 08:32:41;;;;;;;50.38;20.85;;;;;;;;;;4995768;28;20068;-58
2024/01/10 08:35:08;;;;;;;50.30;22.40;;;;;;;;;;5000364;28;20050;-56
2024/01/10 08:37:35;;;;;;;60.00;23.20;;;;;;;;;;4995426;28;20517;-57
2024/01/10 08:40:06;;;;;;;57.50;24.55;;;;;;;;;;4996312;28;20640;-58
2024/01/10 08:42:32;;;;;;;58.55;24.23;;;;;;;;;;5005118;28;20050;-58
2024/01/10 08:44:58;;;;;;;48.35;23.13;;;;;;;;;;4997233;28;20474;-56
2024/01/10 08:47:24;;;;;;;55.40;24.73;;;;;;;;;;4999992;28;20049;-57
2024/01/10 08:49:51;;;;;;;61.10;25.30;;;;;;;;;;5002485;28;20038;-57
2024/01/10 08:52:17;;;;;;;49.22;21.88;;;;;;;;;;4994649;28;20050;-57
2024/01/10 08:54:43;;;;;;;58.08;22.38;;;;;;;;;;4998841;28;20057;-57
2024/01/10 08:57:09;;;;;;;50.55;19.90;;;;;;;;;;5004192;28;20045;-57
2024/01/10 08:59:35;;;;;;;49.35;20.17;;;;;;;;;;4995493;28;20394;-57
2024/01/10 09:02:02;;;;;;;48.65;21.30;;;;;;;;;;4997987;28;20046;-59
2024/01/10 09:04:28;;;;;;;49.42;22.15;;;;;;;;;;5000000;28;20054;-59
2024/01/10 09:06:55;;;;;;;58.15;21.90;;;;;;;;;;4999977;28;20057;-58
2024/01/10 09:09:21;;;;;;;59.95;24.55;;;;;;;;;;5000038;28;20425;-58
2024/01/10 09:11:50;;;;;;;54.45;24.33;;;;;;;;;;4993555;28;20046;-60
2024/01/10 09:14:16;;;;;;;62.90;25.42;;;;;;;;;;4996330;28;20050;-58
2024/01/10 09:16:43;;;;;;;54.80;22.85;;;;;;;;;;4999606;28;20034;-59
2024/01/10 09:19:09;;;;;;;56.47;22.20;;;;;;;;;;5000861;28;20038;-57
2024/01/10 09:21:35;;;;;;;58.75;23.92;;;;;;;;;;4998396;28;20061;-58
2024/01/10 09:24:04;;;;;;;52.60;22.95;;;;;;;;;;4995890;28;20050;-59
2024/01/10 09:26:32;;;;;;;57.72;23.52;;;;;;;;;;5004417;28;20053;-58
2024/01/10 09:28:58;;;;;;;53.58;23.65;;;;;;;;;;4999563;28;20147;-60
2024/01/10 09:31:24;;;;;;;54.78;24.13;;;;;;;;;;4998753;28;20037;-59
2024/01/10 09:33:50;;;;;;;48.78;22.30;;;;;;;;;;5006233;28;20057;-59
2024/01/10 09:36:17;;;;;;;53.88;22.95;;;;;;;;;;5004262;28;20058;-59
2024/01/10 09:38:43;;;;;;;52.45;21.55;;;;;;;;;;4999618;28;20037;-58
2024/01/10 09:41:12;;;;;;;54.58;23.55;;;;;;;;;;5001277;28;20054;-59
2024/01/10 09:43:39;;;;;;;56.30;22.92;;;;;;;;;;5003322;28;20033;-59
2024/01/10 09:46:07;;;;;;;59.58;24.23;;;;;;;;;;5009180;28;20038;-56
2024/01/10 09:48:33;;;;;;;53.30;22.92;;;;;;;;;;5014961;28;20053;-59
2024/01/10 09:50:59;;;;;;;62.22;25.15;;;;;;;;;;5003931;28;20403;-58
2024/01/10 09:53:27;;;;;;;53.90;23.35;;;;;;;;;;5004646;28;20033;-61
2024/01/10 09:55:56;;;;;;;54.97;24.52;;;;;;;;;;5005159;28;20425;-59
2024/01/10 09:58:26;;;;;;;57.63;24.08;;;;;;;;;;5002416;28;20038;-57
2024/01/10 10:00:53;;;;;;;54.83;24.23;;;;;;;;;;5003742;28;20720;-59
2024/01/10 10:03:19;;;;;;;57.72;25.80;;;;;;;;;;5003062;28;20042;-58
2024/01/10 10:05:45;;;;;;;59.88;26.42;;;;;;;;;;5005223;28;20038;-58
2024/01/10 10:08:15;;;;;;;65.15;27.17;;;;;;;;;;5001151;28;20057;-59
2024/01/10 10:10:44;;;;;;;70.70;28.48;;;;;;;;;;5000763;28;20093;-61
2024/01/10 10:13:24;;;;;;;59.17;26.25;;;;;;;;;;5001670;28;20050;-60
2024/01/10 10:16:02;;;;;;;57.30;24.15;;;;;;;;;;5003590;28;20045;-60
2024/01/10 10:18:29;;;;;;;55.42;23.77;;;;;;;;;;5002396;28;20054;-57
2024/01/10 10:21:11;;;;;;;59.85;24.90;;;;;;;;;;5007070;28;20549;-58
2024/01/10 10:23:39;;;;;;;54.33;23.02;;;;;;;;;;5004487;28;20084;-60
2024/01/10 10:26:22;;;;;;;56.35;23.63;;;;;;;;;;5004007;28;20057;-59
2024/01/10 10:28:49;;;;;;;52.38;23.08;;;;;;;;;;5002677;28;20053;-60
2024/01/10 10:31:17;;;;;;;53.47;23.77;;;;;;;;;;5001453;28;20053;-60
2024/01/10 10:33:44;;;;;;;58.85;26.27;;;;;;;;;;5006364;28;20053;-59
2024/01/10 10:36:13;;;;;;;51.78;23.60;;;;;;;;;;5004606;28;20054;-59
2024/01/10 10:38:40;;;;;;;53.83;24.47;;;;;;;;;;4995821;28;20042;-58
2024/01/10 10:41:12;;;;;;;58.03;24.45;;;;;;;;;;5003597;28;20050;-58
2024/01/10 10:43:40;;;;;;;58.30;26.55;;;;;;;;;;5004128;28;20025;-60
2024/01/10 10:46:09;;;;;;;50.55;23.48;;;;;;;;;;5003534;28;20046;-59
2024/01/10 10:48:36;;;;;;;48.85;22.17;;;;;;;;;;4999055;28;20421;-60
2024/01/10 10:51:08;;;;;;;55.10;23.38;;;;;;;;;;5001941;28;20050;-59
2024/01/10 10:53:36;;;;;;;60.15;25.58;;;;;;;;;;4996566;28;20493;-59
2024/01/10 10:56:07;;;;;;;65.22;24.92;;;;;;;;;;5005173;28;20050;-60
2024/01/10 10:58:41;;;;;;;54.33;22.45;;;;;;;;;;5003703;28;20052;-59
2024/01/10 11:01:09;;;;;;;51.70;22.50;;;;;;;;;;4998153;28;20051;-59
2024/01/10 11:03:37;;;;;;;49.13;23.13;;;;;;;;;;5000052;28;20030;-59
2024/01/10 11:06:04;;;;;;;48.60;25.00;;;;;;;;;;5001819;28;20065;-60
2024/01/10 11:08:37;;;;;;;52.45;22.98;;;;;;;;;;5001687;28;20433;-59
2024/01/10 11:11:07;;;;;;;51.75;24.20;;;;;;;;;;4995990;28;20038;-60
2024/01/10 11:14:02;;;;;;;51.60;25.08;;;;;;;;;;5000670;28;20042;-59
2024/01/10 11:16:43;;;;;;;49.22;23.40;;;;;;;;;;5002136;28;20410;-59
2024/01/10 11:19:36;;;;;;;53.72;24.88;;;;;;;;;;5004052;28;20042;-59
2024/01/10 11:22:37;;;;;;;50.15;23.15;;;;;;;;;;4999499;28;20405;-60
2024/01/10 11:25:05;;;;;;;44.22;23.65;;;;;;;;;;5000446;28;20409;-59
2024/01/10 11:27:31;;;;;;;53.60;23.83;;;;;;;;;;5004976;28;20061;-60
2024/01/10 11:29:58;;;;;;;47.70;23.27;;;;;;;;;;5002367;28;20033;-59
2024/01/10 11:32:24;;;;;;;50.90;23.23;;;;;;;;;;5001463;28;20053;-58
2024/01/10 11:34:53;;;;;;;61.50;27.95;;;;;;;;;;4997075;28;20042;-60
2024/01/10 11:37:19;;;;;;;55.93;27.07;;;;;;;;;;4997686;28;20046;-58
2024/01/10 11:39:46;;;;;;;49.55;25.00;;;;;;;;;;5001595;28;20057;-58
2024/01/10 11:42:22;;;;;;;52.30;25.30;;;;;;;;;;4999294;28;20050;-55
2024/01/10 11:44:49;;;;;;;52.63;24.67;;;;;;;;;;5004666;28;20050;-56
2024/01/10 11:47:17;;;;;;;54.28;25.02;;;;;;;;;;5006777;28;20046;-57
2024/01/10 11:49:58;;;;;;;53.38;25.15;;;;;;;;;;4999655;28;20050;-57
2024/01/10 11:52:32;;;;;;;52.88;24.42;;;;;;;;;;4997744;28;20041;-59
2024/01/10 11:54:58;;;;;;;50.40;24.23;;;;;;;;;;4997027;28;20026;-57
2024/01/10 11:57:28;;;;;;;45.42;24.23;;;;;;;;;;5000434;28;20045;-57
2024/01/10 11:59:56;;;;;;;47.03;24.13;;;;;;;;;;4998846;28;20033;-57
2024/01/10 12:02:25;;;;;;;53.05;25.05;;;;;;;;;;5019108;28;20061;-57
2024/01/10 12:04:51;;;;;;;50.00;23.57;;;;;;;;;;5001177;28;20414;-58
2024/01/10 12:07:18;;;;;;;49.42;24.15;;;;;;;;;;4997513;28;20293;-57
2024/01/10 12:09:45;;;;;;;48.35;23.83;;;;;;;;;;5002472;28;20046;-57
2024/01/10 12:12:15;;;;;;;53.30;24.15;;;;;;;;;;4994912;28;20056;-58
2024/01/10 12:14:44;;;;;;;48.28;23.75;;;;;;;;;;4999500;28;20045;-58
2024/01/10 12:17:10;;;;;;;51.20;23.92;;;;;;;;;;4998837;28;20422;-58
2024/01/10 12:19:39;;;;;;;54.03;24.83;;;;;;;;;;5000958;28;20045;-57
2024/01/10 12:22:05;;;;;;;57.60;27.83;;;;;;;;;;5002233;28;20126;-57
2024/01/10 12:24:32;;;;;;;52.83;26.77;;;;;;;;;;5006468;28;20049;-58
2024/01/10 12:26:58;;;;;;;51.35;24.38;;;;;;;;;;5005801;28;20045;-58
2024/01/10 12:29:25;;;;;;;49.53;24.25;;;;;;;;;;4996260;28;20395;-59
2024/01/10 12:31:51;;;;;;;48.35;25.88;;;;;;;;;;5004785;28;20485;-60
2024/01/10 12:34:17;;;;;;;50.17;25.88;;;;;;;;;;5000960;28;20048;-59
2024/01/10 12:36:44;;;;;;;53.47;26.08;;;;;;;;;;4998171;28;20060;-58
2024/01/10 12:39:11;;;;;;;51.40;25.20;;;;;;;;;;5003617;28;20449;-59
2024/01/10 12:41:38;;;;;;;49.67;25.52;;;;;;;;;;4999134;28;20037;-58
2024/01/10 12:44:05;;;;;;;51.25;25.42;;;;;;;;;;4996997;28;20046;-59
2024/01/10 12:46:31;;;;;;;51.72;26.60;;;;;;;;;;4996783;28;20034;-59
2024/01/10 12:49:05;;;;;;;46.00;24.17;;;;;;;;;;4997914;28;20052;-58
2024/01/10 12:51:33;;;;;;;46.80;25.83;;;;;;;;;;5000342;28;20042;-58
2024/01/10 12:54:00;;;;;;;55.10;25.88;;;;;;;;;;4998703;28;20494;-58
2024/01/10 12:56:27;;;;;;;53.78;25.88;;;;;;;;;;5001943;28;20489;-57
2024/01/10 12:58:57;;;;;;;47.05;24.10;;;;;;;;;;4999490;28;20061;-57
2024/01/10 13:01:24;;;;;;;49.05;24.73;;;;;;;;;;5002316;28;20406;-55
2024/01/10 13:03:50;;;;;;;27.88;14.60;;;;;;;;;;5001470;28;20081;-54
2024/01/10 13:06:18;;;;;;;42.47;18.50;;;;;;;;;;5000905;28;20046;-54
2024/01/10 13:08:48;;;;;;;38.33;19.73;;;;;;;;;;4997195;28;20548;-56
2024/01/10 13:11:14;;;;;;;42.78;21.42;;;;;;;;;;4994446;28;20035;-59
2024/01/10 13:13:41;;;;;;;40.30;21.90;;;;;;;;;;5000191;28;20038;-54
2024/01/10 13:16:10;;;;;;;36.83;20.88;;;;;;;;;;4997806;28;20054;-56
2024/01/10 13:18:37;;;;;;;40.58;21.70;;;;;;;;;;4993620;28;20060;-54
2024/01/10 13:21:04;;;;;;;35.78;20.80;;;;;;;;;;5000504;28;20046;-56
2024/01/10 13:23:30;;;;;;;39.58;20.88;;;;;;;;;;4999859;28;20042;-56
2024/01/10 13:25:56;;;;;;;41.03;22.00;;;;;;;;;;4999739;28;20054;-54
2024/01/10 13:28:22;;;;;;;43.08;22.40;;;;;;;;;;5001035;28;20045;-57
2024/01/10 13:30:50;;;;;;;37.08;21.65;;;;;;;;;;4998988;28;20046;-58
2024/01/10 13:33:18;;;;;;;40.92;23.15;;;;;;;;;;5003262;28;20048;-57
2024/01/10 13:35:44;;;;;;;47.30;23.05;;;;;;;;;;4995682;28;20064;-54
2024/01/10 13:38:11;;;;;;;44.42;23.33;;;;;;;;;;4991249;28;20064;-61
2024/01/10 13:40:38;;;;;;;44.75;22.63;;;;;;;;;;4997977;28;20041;-56
2024/01/10 13:43:04;;;;;;;45.58;24.40;;;;;;;;;;4999643;28;20041;-61
2024/01/10 13:45:30;;;;;;;40.75;22.15;;;;;;;;;;4996359;28;20141;-53
2024/01/10 13:47:57;;;;;;;39.33;22.00;;;;;;;;;;4995541;28;20046;-57
2024/01/10 13:50:25;;;;;;;43.95;22.33;;;;;;;;;;4991381;28;20050;-57
2024/01/10 13:52:51;;;;;;;51.30;23.50;;;;;;;;;;4996434;28;20544;-58
2024/01/10 13:55:17;;;;;;;53.05;24.27;;;;;;;;;;4996279;28;20065;-59
2024/01/10 13:57:44;;;;;;;52.55;23.33;;;;;;;;;;4999713;28;20038;-60
2024/01/10 14:00:14;;;;;;;44.42;22.95;;;;;;;;;;4995551;28;20497;-60
2024/01/10 14:02:41;;;;;;;47.30;25.75;;;;;;;;;;4992180;28;20049;-61
2024/01/10 14:05:09;;;;;;;47.00;26.40;;;;;;;;;;4994146;28;20035;-61
2024/01/10 14:07:36;;;;;;;48.17;26.50;;;;;;;;;;5001204;28;20045;-59
2024/01/10 14:10:02;;;;;;;51.97;27.15;;;;;;;;;;4997106;28;20426;-61
2024/01/10 14:12:31;;;;;;;54.25;29.10;;;;;;;;;;5004777;28;20038;-60
2024/01/10 14:14:59;;;;;;;55.65;29.55;;;;;;;;;;4999577;28;20049;-60
2024/01/10 14:17:25;;;;;;;54.65;29.42;;;;;;;;;;5000279;28;20050;-61